createdAt,value
2023-01-29T00:00:11.380Z,9.40
2023-01-29T00:02:37.826Z,10.38
2023-01-29T00:05:25.576Z,9.57
2023-01-29T00:07:52.370Z,10.00
2023-01-29T00:10:18.823Z,9.83
2023-01-29T00:12:45.193Z,9.95
2023-01-29T00:15:12.140Z,10.63
2023-01-29T00:17:38.499Z,10.02
2023-01-29T00:20:05.264Z,11.10
2023-01-29T00:22:31.620Z,10.23
2023-01-29T00:24:58.212Z,10.30
2023-01-29T00:27:24.518Z,9.63
2023-01-29T00:30:09.583Z,10.20
2023-01-29T00:32:36.162Z,10.18
2023-01-29T00:35:02.688Z,9.20
2023-01-29T00:37:29.222Z,11.07
2023-01-29T00:39:56.675Z,10.57
2023-01-29T00:42:41.601Z,10.25
2023-01-29T00:45:08.269Z,10.55
2023-01-29T00:47:34.627Z,10.40
2023-01-29T00:50:07.563Z,9.75
2023-01-29T00:52:36.288Z,9.98
2023-01-29T00:55:05.134Z,10.60
2023-01-29T00:57:33.626Z,10.82
2023-01-29T01:00:00.012Z,10.70
2023-01-29T01:02:45.677Z,10.00
2023-01-29T01:05:18.134Z,10.90
2023-01-29T01:07:49.642Z,9.63
2023-01-29T01:10:21.637Z,10.07
2023-01-29T01:12:58.767Z,9.60
2023-01-29T01:15:31.542Z,11.38
2023-01-29T01:18:00.765Z,9.40
2023-01-29T01:20:30.847Z,9.77
2023-01-29T01:22:57.459Z,9.82
2023-01-29T01:25:25.712Z,10.27
2023-01-29T01:27:53.739Z,9.32
2023-01-29T01:30:20.185Z,9.38
2023-01-29T01:32:46.583Z,10.43
2023-01-29T01:35:14.757Z,9.35
2023-01-29T01:37:41.661Z,9.90
2023-01-29T01:40:20.345Z,9.85
2023-01-29T01:42:49.458Z,10.13
2023-01-29T01:45:29.477Z,9.50
2023-01-29T01:48:26.406Z,9.38
2023-01-29T01:51:03.392Z,9.37
2023-01-29T01:53:35.214Z,10.40
2023-01-29T01:56:06.496Z,9.50
2023-01-29T01:58:41.508Z,8.30
2023-01-29T02:01:09.409Z,9.50
2023-01-29T02:04:02.424Z,9.37
2023-01-29T02:06:47.547Z,9.60
2023-01-29T02:09:38.746Z,9.48
2023-01-29T02:12:11.477Z,9.05
2023-01-29T02:14:40.057Z,9.52
2023-01-29T02:17:08.193Z,8.77
2023-01-29T02:19:59.536Z,9.45
2023-01-29T02:22:34.907Z,9.48
2023-01-29T02:25:32.967Z,10.25
2023-01-29T02:28:05.160Z,10.55
2023-01-29T02:30:43.620Z,9.47
2023-01-29T02:33:25.990Z,9.27
2023-01-29T02:36:13.892Z,10.43
2023-01-29T02:39:17.282Z,9.93
2023-01-29T02:42:00.572Z,9.82
2023-01-29T02:44:38.594Z,9.13
2023-01-29T02:47:21.990Z,9.52
2023-01-29T02:49:56.184Z,11.07
2023-01-29T02:52:51.572Z,9.55
2023-01-29T02:55:43.720Z,9.80
2023-01-29T02:58:17.339Z,10.43
2023-01-29T03:00:47.506Z,9.73
2023-01-29T03:03:21.992Z,10.55
2023-01-29T03:06:06.333Z,9.98
2023-01-29T03:08:45.308Z,9.55
2023-01-29T03:11:13.729Z,11.27
2023-01-29T03:14:04.785Z,11.52
2023-01-29T03:16:35.452Z,10.85
2023-01-29T03:19:10.816Z,9.57
2023-01-29T03:21:51.089Z,10.65
2023-01-29T03:24:46.873Z,10.73
2023-01-29T03:27:34.989Z,11.13
2023-01-29T03:30:20.815Z,9.75
2023-01-29T03:32:51.751Z,10.57
2023-01-29T03:35:33.354Z,11.07
2023-01-29T03:38:00.874Z,10.60
2023-01-29T03:40:33.869Z,11.95
2023-01-29T03:43:11.371Z,11.02
2023-01-29T03:46:00.482Z,10.82
2023-01-29T03:48:41.515Z,10.68
2023-01-29T03:51:17.793Z,10.97
2023-01-29T03:53:50.353Z,10.75
2023-01-29T03:56:21.408Z,11.35
2023-01-29T03:58:57.235Z,10.63
2023-01-29T04:01:48.572Z,11.00
2023-01-29T04:04:19.834Z,11.40
2023-01-29T04:06:48.712Z,11.75
2023-01-29T04:09:31.390Z,11.43
2023-01-29T04:12:04.698Z,10.93
2023-01-29T04:14:32.611Z,11.52
2023-01-29T04:17:03.425Z,11.70
2023-01-29T04:19:30.185Z,11.80
2023-01-29T04:22:10.720Z,12.05
2023-01-29T04:24:37.492Z,12.50
2023-01-29T04:27:42.437Z,12.77
2023-01-29T04:30:36.545Z,10.57
2023-01-29T04:33:27.865Z,11.35
2023-01-29T04:36:14.138Z,11.85
2023-01-29T04:38:51.536Z,11.13
2023-01-29T04:41:30.620Z,11.35
2023-01-29T04:44:18.593Z,11.50
2023-01-29T04:47:06.521Z,11.20
2023-01-29T04:49:46.699Z,11.75
2023-01-29T04:52:22.068Z,12.18
2023-01-29T04:55:00.143Z,12.23
2023-01-29T04:57:35.688Z,12.20
2023-01-29T05:00:23.937Z,11.98
2023-01-29T05:02:51.164Z,11.77
2023-01-29T05:05:20.349Z,12.40
2023-01-29T05:07:47.960Z,12.38
2023-01-29T05:10:18.319Z,11.57
2023-01-29T05:12:49.425Z,12.82
2023-01-29T05:15:23.030Z,11.20
2023-01-29T05:17:49.499Z,11.70
2023-01-29T05:20:16.353Z,12.45
2023-01-29T05:22:44.499Z,12.47
2023-01-29T05:25:23.825Z,12.05
2023-01-29T05:28:09.958Z,12.63
2023-01-29T05:30:38.705Z,11.77
2023-01-29T05:33:16.970Z,11.75
2023-01-29T05:35:43.651Z,13.20
2023-01-29T05:38:10.107Z,13.10
2023-01-29T05:40:37.025Z,11.05
2023-01-29T05:43:04.414Z,12.05
2023-01-29T05:45:30.736Z,12.05
2023-01-29T05:47:58.686Z,11.43
2023-01-29T05:50:26.953Z,11.93
2023-01-29T05:53:01.173Z,11.75
2023-01-29T05:55:29.692Z,11.70
2023-01-29T05:57:56.137Z,12.38
2023-01-29T06:00:22.578Z,12.40
2023-01-29T06:02:49.401Z,11.55
2023-01-29T06:05:15.727Z,11.07
2023-01-29T06:07:45.157Z,12.88
2023-01-29T06:10:17.204Z,11.85
2023-01-29T06:12:44.596Z,12.63
2023-01-29T06:15:12.285Z,12.65
2023-01-29T06:17:38.623Z,12.90
2023-01-29T06:20:05.669Z,11.82
2023-01-29T06:22:33.516Z,12.05
2023-01-29T06:24:59.988Z,12.10
2023-01-29T06:27:26.296Z,12.48
2023-01-29T06:29:52.621Z,11.88
2023-01-29T06:32:19.058Z,11.55
2023-01-29T06:34:46.764Z,11.38
2023-01-29T06:37:14.230Z,11.70
2023-01-29T06:39:40.579Z,10.98
2023-01-29T06:42:07.116Z,12.00
2023-01-29T06:44:33.422Z,11.52
2023-01-29T06:46:59.874Z,10.65
2023-01-29T06:49:26.207Z,11.90
2023-01-29T06:51:52.517Z,11.10
2023-01-29T06:54:18.848Z,11.25
2023-01-29T06:56:45.165Z,10.90
2023-01-29T06:59:12.523Z,11.85
2023-01-29T07:01:41.344Z,10.53
2023-01-29T07:04:07.895Z,10.23
2023-01-29T07:06:35.029Z,11.25
2023-01-29T07:09:01.981Z,11.32
2023-01-29T07:11:28.407Z,10.68
2023-01-29T07:13:54.761Z,11.37
2023-01-29T07:16:21.536Z,12.15
2023-01-29T07:18:47.884Z,10.52
2023-01-29T07:21:14.190Z,11.32
2023-01-29T07:23:41.188Z,10.35
2023-01-29T07:26:07.625Z,11.23
2023-01-29T07:28:40.422Z,10.35
2023-01-29T07:31:08.114Z,11.40
2023-01-29T07:33:34.804Z,10.65
2023-01-29T07:36:01.164Z,11.43
2023-01-29T07:38:27.644Z,11.10
2023-01-29T07:40:54.264Z,10.70
2023-01-29T07:43:20.852Z,11.50
2023-01-29T07:45:47.330Z,11.10
2023-01-29T07:48:13.712Z,11.48
2023-01-29T07:50:40.727Z,12.30
2023-01-29T07:53:07.468Z,10.57
2023-01-29T07:55:33.997Z,10.95
2023-01-29T07:58:03.320Z,11.30
2023-01-29T08:00:30.988Z,10.95
2023-01-29T08:03:10.715Z,11.17
2023-01-29T08:05:37.083Z,11.20
2023-01-29T08:08:07.271Z,11.85
2023-01-29T08:10:34.911Z,11.48
2023-01-29T08:13:02.022Z,11.15
2023-01-29T08:15:29.139Z,11.13
2023-01-29T08:17:58.327Z,9.93
2023-01-29T08:20:25.634Z,10.50
2023-01-29T08:22:59.322Z,11.18
2023-01-29T08:25:25.965Z,10.07
2023-01-29T08:27:52.490Z,9.40
2023-01-29T08:30:18.829Z,10.98
2023-01-29T08:32:45.225Z,11.43
2023-01-29T08:35:11.551Z,11.02
2023-01-29T08:37:37.867Z,11.85
2023-01-29T08:40:04.717Z,10.70
2023-01-29T08:42:31.116Z,11.30
2023-01-29T08:44:57.426Z,10.48
2023-01-29T08:47:23.788Z,11.00
2023-01-29T08:49:50.110Z,11.02
2023-01-29T08:52:16.561Z,11.93
2023-01-29T08:54:42.900Z,11.38
2023-01-29T08:57:09.252Z,11.80
2023-01-29T08:59:35.607Z,10.43
2023-01-29T09:02:01.977Z,10.55
2023-01-29T09:04:28.316Z,11.27
2023-01-29T09:06:54.625Z,11.43
2023-01-29T09:09:20.982Z,10.95
2023-01-29T09:11:47.320Z,10.50
2023-01-29T09:14:14.472Z,10.23
2023-01-29T09:16:41.031Z,9.83
2023-01-29T09:19:08.189Z,10.43
2023-01-29T09:21:34.531Z,9.52
2023-01-29T09:24:00.883Z,10.13
2023-01-29T09:26:27.236Z,9.93
2023-01-29T09:28:53.588Z,9.93
2023-01-29T09:31:20.033Z,10.73
2023-01-29T09:33:46.400Z,10.85
2023-01-29T09:36:12.759Z,10.02
2023-01-29T09:38:39.317Z,10.90
2023-01-29T09:41:42.090Z,10.03
2023-01-29T09:44:24.149Z,10.38
2023-01-29T09:46:52.655Z,10.93
2023-01-29T09:49:35.632Z,10.23
2023-01-29T09:52:23.289Z,10.50
2023-01-29T09:54:54.557Z,10.77
2023-01-29T09:57:27.702Z,10.70
2023-01-29T09:59:55.285Z,9.73
2023-01-29T10:02:39.954Z,9.55
2023-01-29T10:05:16.431Z,10.18
2023-01-29T10:08:03.724Z,10.90
2023-01-29T10:10:49.285Z,10.27
2023-01-29T10:13:27.364Z,11.20
2023-01-29T10:16:14.089Z,10.27
2023-01-29T10:18:52.414Z,11.05
2023-01-29T10:21:44.268Z,9.53
2023-01-29T10:24:35.280Z,10.88
2023-01-29T10:27:09.326Z,11.15
2023-01-29T10:29:35.859Z,11.30
2023-01-29T10:32:05.782Z,9.82
2023-01-29T10:34:41.251Z,10.77
2023-01-29T10:37:39.004Z,10.57
2023-01-29T10:40:20.548Z,10.38
2023-01-29T10:42:54.120Z,11.75
2023-01-29T10:45:39.930Z,11.70
2023-01-29T10:48:28.293Z,11.30
2023-01-29T10:51:01.779Z,10.93
2023-01-29T10:54:04.905Z,11.02
2023-01-29T10:56:43.334Z,11.00
2023-01-29T10:59:32.714Z,11.23
2023-01-29T11:02:00.277Z,11.10
2023-01-29T11:04:28.706Z,10.75
2023-01-29T11:06:55.035Z,11.63
2023-01-29T11:09:37.419Z,11.52
2023-01-29T11:12:11.463Z,12.38
2023-01-29T11:14:53.354Z,11.10
2023-01-29T11:17:22.776Z,11.50
2023-01-29T11:19:51.603Z,12.68
2023-01-29T11:22:29.587Z,12.35
2023-01-29T11:25:19.258Z,11.77
2023-01-29T11:27:52.312Z,11.83
2023-01-29T11:30:25.533Z,12.80
2023-01-29T11:33:10.453Z,12.23
2023-01-29T11:35:37.002Z,12.65
2023-01-29T11:38:27.488Z,13.30
2023-01-29T11:41:06.464Z,13.13
2023-01-29T11:43:33.229Z,12.70
2023-01-29T11:46:05.778Z,12.90
2023-01-29T11:48:40.852Z,13.50
2023-01-29T11:51:10.069Z,13.60
2023-01-29T11:53:37.952Z,12.00
2023-01-29T11:56:15.803Z,12.50
2023-01-29T11:58:42.804Z,13.20
2023-01-29T12:01:10.475Z,12.40
2023-01-29T12:03:43.685Z,12.63
2023-01-29T12:06:25.252Z,14.17
2023-01-29T12:09:00.872Z,14.10
2023-01-29T12:11:30.427Z,11.85
2023-01-29T12:14:02.485Z,13.52
2023-01-29T12:16:39.785Z,13.23
2023-01-29T12:19:17.027Z,14.50
2023-01-29T12:21:48.810Z,12.55
2023-01-29T12:24:23.002Z,13.10
2023-01-29T12:27:00.883Z,13.85
2023-01-29T12:29:55.060Z,13.65
2023-01-29T12:32:27.502Z,14.43
2023-01-29T12:35:01.646Z,14.60
2023-01-29T12:38:00.713Z,15.23
2023-01-29T12:40:32.855Z,13.95
2023-01-29T12:43:10.078Z,14.57
2023-01-29T12:45:37.515Z,14.97
2023-01-29T12:48:10.474Z,14.27
2023-01-29T12:50:38.314Z,14.45
2023-01-29T12:53:15.926Z,14.32
2023-01-29T12:55:47.867Z,14.13
2023-01-29T12:58:18.795Z,12.97
2023-01-29T13:00:48.276Z,14.95
2023-01-29T13:03:22.621Z,14.60
2023-01-29T13:05:55.222Z,14.13
2023-01-29T13:08:36.838Z,14.70
2023-01-29T13:11:10.847Z,14.53
2023-01-29T13:13:44.909Z,14.60
2023-01-29T13:16:15.652Z,14.45
2023-01-29T13:18:59.344Z,14.63
2023-01-29T13:21:30.727Z,14.82
2023-01-29T13:24:02.209Z,14.73
2023-01-29T13:26:28.982Z,15.18
2023-01-29T13:28:55.440Z,15.45
2023-01-29T13:31:37.420Z,14.00
2023-01-29T13:34:14.693Z,13.73
2023-01-29T13:36:44.006Z,13.97
2023-01-29T13:39:20.698Z,14.55
2023-01-29T13:41:47.210Z,15.75
2023-01-29T13:44:27.044Z,15.02
2023-01-29T13:47:42.101Z,14.73
2023-01-29T13:50:19.397Z,13.97
2023-01-29T13:52:57.475Z,13.32
2023-01-29T13:55:31.355Z,13.93
2023-01-29T13:58:15.787Z,13.68
2023-01-29T14:00:42.180Z,14.95
2023-01-29T14:03:08.725Z,14.33
2023-01-29T14:05:42.306Z,12.93
2023-01-29T14:08:17.675Z,14.60
2023-01-29T14:10:44.500Z,13.30
2023-01-29T14:13:19.818Z,14.07
2023-01-29T14:16:11.744Z,13.67
2023-01-29T14:18:47.764Z,14.57
2023-01-29T14:21:14.100Z,14.40
2023-01-29T14:23:44.916Z,12.88
2023-01-29T14:26:34.292Z,13.60
2023-01-29T14:29:04.818Z,13.53
2023-01-29T14:31:40.649Z,13.68
2023-01-29T14:34:20.016Z,12.02
2023-01-29T14:36:47.621Z,13.05
2023-01-29T14:39:43.372Z,11.85
2023-01-29T14:42:24.605Z,14.10
2023-01-29T14:44:53.873Z,12.60
2023-01-29T14:47:20.168Z,12.88
2023-01-29T14:49:58.626Z,12.70
2023-01-29T14:52:32.752Z,12.98
2023-01-29T14:55:02.624Z,14.00
2023-01-29T14:57:30.575Z,12.65
2023-01-29T15:00:00.951Z,13.25
2023-01-29T15:02:38.660Z,12.80
2023-01-29T15:05:11.240Z,13.50
2023-01-29T15:07:44.934Z,12.50
2023-01-29T15:10:38.331Z,12.75
2023-01-29T15:13:14.446Z,12.70
2023-01-29T15:15:50.286Z,13.00
2023-01-29T15:18:27.028Z,13.02
2023-01-29T15:21:04.895Z,11.97
2023-01-29T15:23:34.075Z,13.40
2023-01-29T15:26:03.196Z,12.07
2023-01-29T15:28:34.652Z,12.15
2023-01-29T15:31:07.631Z,12.52
2023-01-29T15:33:38.602Z,12.37
2023-01-29T15:36:08.302Z,12.18
2023-01-29T15:38:35.228Z,12.07
2023-01-29T15:41:23.652Z,12.15
2023-01-29T15:43:56.729Z,12.45
2023-01-29T15:46:29.954Z,12.60
2023-01-29T15:49:00.678Z,11.93
2023-01-29T15:51:28.688Z,12.45
2023-01-29T15:53:59.668Z,12.35
2023-01-29T15:56:30.825Z,12.50
2023-01-29T15:59:00.660Z,12.73
2023-01-29T16:01:28.997Z,11.95
2023-01-29T16:04:01.053Z,12.30
2023-01-29T16:06:29.931Z,12.48
2023-01-29T16:08:56.646Z,10.98
2023-01-29T16:11:23.126Z,12.53
2023-01-29T16:13:51.479Z,12.95
2023-01-29T16:16:24.783Z,12.80
2023-01-29T16:19:00.133Z,11.25
2023-01-29T16:21:35.192Z,11.38
2023-01-29T16:24:13.821Z,12.23
2023-01-29T16:26:44.719Z,10.93
2023-01-29T16:29:15.990Z,11.68
2023-01-29T16:31:44.622Z,11.45
2023-01-29T16:34:22.716Z,10.43
2023-01-29T16:36:49.942Z,11.03
2023-01-29T16:39:26.954Z,10.95
2023-01-29T16:42:21.824Z,11.52
2023-01-29T16:45:05.461Z,12.52
2023-01-29T16:47:37.581Z,12.18
2023-01-29T16:50:22.293Z,12.00
2023-01-29T16:52:58.095Z,11.63
2023-01-29T16:55:25.516Z,12.68
2023-01-29T16:57:55.827Z,13.15
2023-01-29T17:00:27.559Z,12.95
2023-01-29T17:03:15.305Z,12.67
2023-01-29T17:05:42.104Z,12.75
2023-01-29T17:08:22.826Z,13.13
2023-01-29T17:10:49.684Z,12.43
2023-01-29T17:13:39.120Z,11.73
2023-01-29T17:16:20.617Z,12.23
2023-01-29T17:18:46.973Z,13.05
2023-01-29T17:21:13.297Z,14.10
2023-01-29T17:23:39.794Z,13.93
2023-01-29T17:26:09.834Z,14.10
2023-01-29T17:28:36.168Z,13.50
2023-01-29T17:31:06.594Z,13.52
2023-01-29T17:33:34.574Z,11.93
2023-01-29T17:36:00.982Z,13.43
2023-01-29T17:38:27.338Z,13.55
2023-01-29T17:41:09.065Z,14.73
2023-01-29T17:43:35.412Z,13.85
2023-01-29T17:46:01.763Z,13.80
2023-01-29T17:48:29.799Z,13.35
2023-01-29T17:51:00.360Z,13.77
2023-01-29T17:53:43.340Z,13.60
2023-01-29T17:56:16.913Z,13.43
2023-01-29T17:58:43.246Z,12.68
2023-01-29T18:01:09.579Z,13.55
2023-01-29T18:03:36.160Z,12.30
2023-01-29T18:06:02.618Z,12.10
2023-01-29T18:08:32.803Z,14.55
2023-01-29T18:11:00.261Z,13.02
2023-01-29T18:13:27.387Z,12.65
2023-01-29T18:15:54.127Z,12.57
2023-01-29T18:18:22.940Z,13.83
2023-01-29T18:20:49.933Z,13.65
2023-01-29T18:23:16.639Z,14.38
2023-01-29T18:25:43.426Z,11.80
2023-01-29T18:28:14.592Z,13.95
2023-01-29T18:30:42.034Z,12.80
2023-01-29T18:33:08.751Z,14.82
2023-01-29T18:35:35.138Z,14.45
2023-01-29T18:38:01.455Z,12.82
2023-01-29T18:40:27.804Z,14.27
2023-01-29T18:42:54.160Z,13.83
2023-01-29T18:45:20.640Z,14.13
2023-01-29T18:47:48.288Z,13.23
2023-01-29T18:50:14.647Z,13.35
2023-01-29T18:52:41.201Z,14.57
2023-01-29T18:55:09.620Z,13.63
2023-01-29T18:58:26.190Z,14.43
2023-01-29T19:00:24.748Z,12.57
2023-01-29T19:02:51.063Z,12.60
2023-01-29T19:05:21.236Z,13.52
2023-01-29T19:07:47.555Z,14.00
2023-01-29T19:10:16.731Z,13.77
2023-01-29T19:12:43.347Z,13.13
2023-01-29T19:15:11.356Z,12.25
2023-01-29T19:17:38.819Z,14.02
2023-01-29T19:20:05.441Z,12.80
2023-01-29T19:22:32.286Z,13.55
2023-01-29T19:24:58.633Z,15.07
2023-01-29T19:27:30.095Z,13.50
2023-01-29T19:29:58.036Z,13.15
2023-01-29T19:32:24.430Z,12.70
2023-01-29T19:34:51.240Z,12.93
2023-01-29T19:37:17.693Z,13.50
2023-01-29T19:39:44.026Z,13.52
2023-01-29T19:42:10.417Z,13.40
2023-01-29T19:44:38.888Z,12.87
2023-01-29T19:47:05.667Z,13.70
2023-01-29T19:49:33.901Z,13.75
2023-01-29T19:52:01.246Z,13.65
2023-01-29T19:54:28.028Z,13.35
2023-01-29T19:56:54.805Z,13.33
2023-01-29T19:59:21.317Z,14.02
2023-01-29T20:01:47.676Z,12.90
2023-01-29T20:04:14.134Z,13.60
2023-01-29T20:06:40.649Z,13.50
2023-01-29T20:09:07.167Z,14.57
2023-01-29T20:11:33.821Z,14.45
2023-01-29T20:14:00.165Z,12.57
2023-01-29T20:16:26.814Z,13.70
2023-01-29T20:18:53.159Z,15.27
2023-01-29T20:21:21.826Z,14.47
2023-01-29T20:23:52.048Z,15.02
2023-01-29T20:26:18.901Z,13.15
2023-01-29T20:28:47.427Z,15.23
2023-01-29T20:31:14.620Z,14.52
2023-01-29T20:33:40.985Z,14.53
2023-01-29T20:36:09.894Z,14.13
2023-01-29T20:38:36.474Z,13.73
2023-01-29T20:41:14.433Z,15.23
2023-01-29T20:43:41.288Z,14.43
2023-01-29T20:46:08.623Z,14.37
2023-01-29T20:48:35.639Z,14.57
2023-01-29T20:51:07.834Z,15.07
2023-01-29T20:53:34.197Z,13.32
2023-01-29T20:56:02.604Z,15.25
2023-01-29T20:58:30.562Z,15.27
2023-01-29T21:00:56.873Z,15.02
2023-01-29T21:03:23.492Z,13.68
2023-01-29T21:05:51.453Z,14.27
2023-01-29T21:08:17.806Z,13.95
2023-01-29T21:10:45.309Z,14.00
2023-01-29T21:13:12.144Z,15.13
2023-01-29T21:15:38.501Z,14.40
2023-01-29T21:18:06.741Z,14.60
2023-01-29T21:20:33.120Z,14.82
2023-01-29T21:22:59.609Z,14.37
2023-01-29T21:25:25.947Z,13.88
2023-01-29T21:27:52.295Z,14.15
2023-01-29T21:30:19.147Z,12.90
2023-01-29T21:32:46.126Z,15.18
2023-01-29T21:35:12.547Z,13.03
2023-01-29T21:37:38.881Z,14.32
2023-01-29T21:40:05.870Z,15.50
2023-01-29T21:42:50.893Z,14.77
2023-01-29T21:45:17.638Z,13.80
2023-01-29T21:47:43.972Z,14.50
2023-01-29T21:50:10.862Z,14.80
2023-01-29T21:52:37.299Z,14.98
2023-01-29T21:55:04.384Z,14.98
2023-01-29T21:57:30.824Z,15.15
2023-01-29T21:59:59.321Z,14.40
2023-01-29T22:02:27.555Z,14.63
2023-01-29T22:05:08.771Z,14.93
2023-01-29T22:07:44.213Z,15.02
2023-01-29T22:10:11.996Z,15.75
2023-01-29T22:12:38.906Z,14.23
2023-01-29T22:15:06.759Z,14.48
2023-01-29T22:17:33.103Z,13.48
2023-01-29T22:19:59.448Z,14.68
2023-01-29T22:22:25.792Z,13.55
2023-01-29T22:24:52.509Z,16.33
2023-01-29T22:27:18.833Z,15.27
2023-01-29T22:29:45.173Z,15.00
2023-01-29T22:32:11.730Z,15.80
2023-01-29T22:34:38.096Z,15.73
2023-01-29T22:37:04.430Z,15.97
2023-01-29T22:39:30.741Z,16.23
2023-01-29T22:41:57.050Z,15.00
2023-01-29T22:44:23.461Z,15.00
2023-01-29T22:46:50.314Z,14.60
2023-01-29T22:49:16.776Z,15.87
2023-01-29T22:51:43.604Z,15.88
2023-01-29T22:54:10.720Z,15.52
2023-01-29T22:56:37.030Z,14.88
2023-01-29T22:59:03.521Z,14.30
2023-01-29T23:01:32.187Z,15.07
2023-01-29T23:03:58.569Z,14.48
2023-01-29T23:06:24.997Z,15.02
2023-01-29T23:08:51.998Z,14.85
2023-01-29T23:11:20.430Z,16.52
2023-01-29T23:13:54.769Z,13.83
2023-01-29T23:16:27.684Z,14.15
2023-01-29T23:18:55.367Z,16.33
2023-01-29T23:21:24.817Z,14.27
2023-01-29T23:23:52.369Z,15.13
2023-01-29T23:26:37.218Z,14.67
2023-01-29T23:29:04.368Z,14.13
2023-01-29T23:31:31.867Z,14.52
2023-01-29T23:33:58.284Z,13.65
2023-01-29T23:36:24.618Z,14.15
2023-01-29T23:38:50.927Z,14.53
2023-01-29T23:41:17.290Z,15.13
2023-01-29T23:43:43.722Z,14.80
2023-01-29T23:46:10.065Z,13.43
2023-01-29T23:48:36.497Z,14.20
2023-01-29T23:51:02.861Z,14.10
2023-01-29T23:53:29.222Z,14.40
2023-01-29T23:56:05.445Z,14.25
2023-01-29T23:58:32.675Z,13.48
